Time;durP1;ratioP1;P1;durP2;ratioP2;P2;SDS_P1;SDS_P2;PMS_P1;PMS_P2;Temp;Humidity;BMP_temperature;BMP_pressure;BME280_temperature;BME280_humidity;BME280_pressure;Samples;Min_cycle;Max_cycle;Signal;HPM_P1;HPM_P2
2024/03/11 00:01:39;;;;;;;;;;;;;;;6.63;78.03;96589.28;7400976;19;922;-70
2024/03/11 00:04:08;;;;;;;;;;;;;;;6.66;77.75;96580.56;7401043;19;1119;-73
2024/03/11 00:06:40;;;;;;;;;;;;;;;6.69;77.53;96573.53;7398726;19;1856;-72
2024/03/11 00:09:15;;;;;;;;;;;;;;;6.71;77.93;96568.28;7400805;19;1127;-70
2024/03/11 00:11:48;;;;;;;;;;;;;;;6.73;78.10;96565.66;7398331;19;1130;-69
2024/03/11 00:14:21;;;;;;;;;;;;;;;6.74;78.29;96564.78;7401201;19;1020;-66
2024/03/11 00:16:50;;;;;;;;;;;;;;;6.76;78.71;96568.19;7400639;19;1175;-68
2024/03/11 00:19:18;;;;;;;;;;;;;;;6.75;78.74;96571.69;7400652;19;1109;-67
2024/03/11 00:21:50;;;;;;;;;;;;;;;6.79;78.40;96574.19;7400503;19;1061;-72
2024/03/11 00:24:18;;;;;;;;;;;;;;;6.82;77.22;96568.06;7400515;19;1001;-69
2024/03/11 00:26:47;;;;;;;;;;;;;;;6.81;77.39;96561.16;7398561;19;1834;-69
2024/03/11 00:29:15;;;;;;;;;;;;;;;6.85;77.78;96557.59;7400737;19;1027;-66
2024/03/11 00:31:44;;;;;;;;;;;;;;;6.89;77.27;96559.22;7400059;19;1037;-73
2024/03/11 00:34:14;;;;;;;;;;;;;;;6.91;77.64;96549.66;7400358;19;1899;-69
2024/03/11 00:36:42;;;;;;;;;;;;;;;6.91;78.22;96554.84;7399920;19;1041;-72
2024/03/11 00:39:15;;;;;;;;;;;;;;;6.93;78.99;96542.66;7400210;19;1975;-70
2024/03/11 00:41:43;;;;;;;;;;;;;;;6.99;79.86;96540.81;7400240;19;1009;-74
2024/03/11 00:44:12;;;;;;;;;;;;;;;7.01;79.46;96539.88;7400376;19;1614;-67
2024/03/11 00:46:40;;;;;;;;;;;;;;;7.07;79.62;96547.53;7397003;19;1906;-70
2024/03/11 00:49:09;;;;;;;;;;;;;;;7.13;79.64;96549.13;7398421;19;997;-70
2024/03/11 00:51:38;;;;;;;;;;;;;;;7.20;79.86;96544.66;7399418;19;1030;-69
2024/03/11 00:54:06;;;;;;;;;;;;;;;7.25;79.20;96547.97;7399825;19;1066;-72
2024/03/11 00:56:37;;;;;;;;;;;;;;;7.24;78.63;96555.81;7399259;19;1002;-70
2024/03/11 00:59:06;;;;;;;;;;;;;;;7.23;78.33;96551.53;7399214;19;1112;-70
2024/03/11 01:01:35;;;;;;;;;;;;;;;7.23;78.44;96546.31;7399063;19;1049;-64
2024/03/11 01:04:06;;;;;;;;;;;;;;;7.24;78.74;96543.69;7399795;19;1811;-65
2024/03/11 01:06:34;;;;;;;;;;;;;;;7.19;79.19;96532.50;7397406;19;1849;-67
2024/03/11 01:09:03;;;;;;;;;;;;;;;7.19;79.63;96540.31;7399135;19;1874;-68
2024/03/11 01:11:31;;;;;;;;;;;;;;;7.25;79.97;96531.53;7396892;19;1220;-71
2024/03/11 01:14:03;;;;;;;;;;;;;;;7.27;80.49;96517.59;7399082;19;1697;-67
2024/03/11 01:16:33;;;;;;;;;;;;;;;7.36;80.42;96529.50;7398539;19;1096;-72
2024/03/11 01:19:01;;;;;;;;;;;;;;;7.41;80.85;96521.59;7398544;19;991;-68
2024/03/11 01:21:30;;;;;;;;;;;;;;;7.49;80.59;96511.81;7398460;19;1068;-67
2024/03/11 01:23:58;;;;;;;;;;;;;;;7.54;80.65;96516.91;7399277;19;1650;-68
2024/03/11 01:26:27;;;;;;;;;;;;;;;7.56;81.02;96502.13;7397198;19;1861;-68
2024/03/11 01:28:55;;;;;;;;;;;;;;;7.59;81.05;96502.88;7398236;19;1024;-69
2024/03/11 01:31:28;;;;;;;;;;;;;;;7.62;81.10;96501.94;7398439;19;1789;-70
2024/03/11 01:33:57;;;;;;;;;;;;;;;7.66;80.89;96494.91;7398282;19;1099;-75
2024/03/11 01:36:25;;;;;;;;;;;;;;;7.71;82.32;96496.47;7398782;19;1765;-71
2024/03/11 01:38:54;;;;;;;;;;;;;;;7.67;83.11;96488.78;7398296;19;938;-71
2024/03/11 01:41:24;;;;;;;;;;;;;;;7.71;83.66;96496.47;7398063;19;1818;-66
2024/03/11 01:43:52;;;;;;;;;;;;;;;7.75;82.67;96496.41;7398172;19;1067;-69
2024/03/11 01:46:21;;;;;;;;;;;;;;;7.80;82.47;96489.31;7397208;19;1848;-75
2024/03/11 01:48:53;;;;;;;;;;;;;;;7.85;82.06;96477.00;7397539;19;1041;-72
2024/03/11 01:51:22;;;;;;;;;;;;;;;7.90;81.96;96477.75;7397351;19;1052;-69
2024/03/11 01:53:51;;;;;;;;;;;;;;;7.91;82.52;96473.38;7397775;19;961;-66
2024/03/11 01:56:20;;;;;;;;;;;;;;;7.82;82.77;96471.88;7397560;19;1921;-75
2024/03/11 01:58:50;;;;;;;;;;;;;;;7.84;83.95;96478.78;7396759;19;950;-73
2024/03/11 02:01:19;;;;;;;;;;;;;;;7.93;83.83;96475.06;7397434;19;1786;-72
2024/03/11 02:03:47;;;;;;;;;;;;;;;8.03;83.96;96470.44;7397577;19;1004;-72
2024/03/11 02:06:19;;;;;;;;;;;;;;;8.11;84.03;96474.56;7396680;19;1838;-73
2024/03/11 02:08:49;;;;;;;;;;;;;;;8.18;84.19;96482.16;7397080;19;977;-65
2024/03/11 02:11:17;;;;;;;;;;;;;;;8.23;84.03;96479.41;7395142;19;1482;-69
2024/03/11 02:13:46;;;;;;;;;;;;;;;8.14;81.86;96479.69;7396737;19;1188;-73
2024/03/11 02:16:15;;;;;;;;;;;;;;;8.08;80.64;96475.50;7396904;19;1812;-69
2024/03/11 02:18:43;;;;;;;;;;;;;;;8.08;80.01;96476.38;7396545;19;1045;-67
2024/03/11 02:21:11;;;;;;;;;;;;;;;8.11;79.63;96470.22;7396485;19;1061;-68
2024/03/11 02:23:43;;;;;;;;;;;;;;;8.11;79.42;96467.59;7396855;19;1030;-70
2024/03/11 02:26:12;;;;;;;;;;;;;;;8.03;79.16;96469.56;7396292;19;1857;-72
2024/03/11 02:28:40;;;;;;;;;;;;;;;8.00;79.68;96478.31;7397026;19;1747;-68
2024/03/11 02:31:09;;;;;;;;;;;;;;;8.07;80.20;96495.50;7396867;19;1763;-69
2024/03/11 02:33:37;;;;;;;;;;;;;;;8.03;79.66;96501.69;7396521;19;1047;-72
2024/03/11 02:36:07;;;;;;;;;;;;;;;8.05;79.70;96502.50;7396400;19;1899;-68
2024/03/11 02:38:37;;;;;;;;;;;;;;;8.06;80.01;96504.22;7396015;19;1056;-71
2024/03/11 02:41:08;;;;;;;;;;;;;;;8.12;79.75;96513.59;7396420;19;1016;-69
2024/03/11 02:43:36;;;;;;;;;;;;;;;8.15;79.61;96507.44;7395835;19;1106;-68
2024/03/11 02:46:06;;;;;;;;;;;;;;;8.21;79.04;96507.25;7395451;19;1850;-68
2024/03/11 02:48:35;;;;;;;;;;;;;;;8.22;78.95;96512.44;7395750;19;1041;-66
2024/03/11 02:51:04;;;;;;;;;;;;;;;8.27;79.15;96508.84;7395623;19;1033;-68
2024/03/11 02:53:33;;;;;;;;;;;;;;;8.31;79.33;96516.53;7395505;19;1041;-73
2024/03/11 02:56:07;;;;;;;;;;;;;;;8.36;79.10;96519.00;7395392;19;1064;-69
2024/03/11 02:58:39;;;;;;;;;;;;;;;8.32;79.02;96520.84;7395880;19;1046;-64
2024/03/11 03:01:07;;;;;;;;;;;;;;;8.26;80.15;96507.13;7395292;19;1131;-72
2024/03/11 03:03:35;;;;;;;;;;;;;;;8.28;80.60;96510.56;7395700;19;1038;-69
2024/03/11 03:06:04;;;;;;;;;;;;;;;8.32;80.68;96507.81;7394987;19;1846;-65
2024/03/11 03:08:32;;;;;;;;;;;;;;;8.39;80.25;96508.47;7395134;19;955;-71
2024/03/11 03:11:03;;;;;;;;;;;;;;;8.43;79.91;96509.25;7391636;19;1749;-70
2024/03/11 03:13:31;;;;;;;;;;;;;;;8.51;79.76;96501.19;7394921;19;1001;-66
2024/03/11 03:16:02;;;;;;;;;;;;;;;8.54;79.26;96506.34;7395261;19;938;-72
2024/03/11 03:18:31;;;;;;;;;;;;;;;8.55;79.31;96508.06;7395289;19;1024;-68
2024/03/11 03:20:59;;;;;;;;;;;;;;;8.56;79.27;96501.94;7395118;19;1146;-75
2024/03/11 03:23:27;;;;;;;;;;;;;;;8.57;79.09;96482.78;7395054;19;969;-68
2024/03/11 03:25:56;;;;;;;;;;;;;;;8.54;79.21;96488.94;7394966;19;1040;-63
2024/03/11 03:28:24;;;;;;;;;;;;;;;8.48;79.99;96496.91;7394961;19;996;-67
2024/03/11 03:30:53;;;;;;;;;;;;;;;8.49;80.35;96501.22;7394892;19;951;-68
2024/03/11 03:33:24;;;;;;;;;;;;;;;8.52;80.46;96495.91;7394377;19;1111;-69
2024/03/11 03:35:53;;;;;;;;;;;;;;;8.56;80.01;96510.63;7394283;19;1060;-68
2024/03/11 03:38:21;;;;;;;;;;;;;;;8.57;79.69;96506.25;7394311;19;1135;-71
2024/03/11 03:40:50;;;;;;;;;;;;;;;8.55;79.73;96501.06;7394597;19;1014;-73
2024/03/11 03:43:18;;;;;;;;;;;;;;;8.56;79.88;96499.34;7394376;19;1814;-63
2024/03/11 03:45:48;;;;;;;;;;;;;;;8.60;79.94;96506.16;7394318;19;1922;-70
2024/03/11 03:48:16;;;;;;;;;;;;;;;8.57;79.84;96496.69;7392240;19;1846;-67
2024/03/11 03:50:47;;;;;;;;;;;;;;;8.51;80.84;96488.16;7394325;19;1020;-72
2024/03/11 03:53:15;;;;;;;;;;;;;;;8.58;80.78;96487.13;7394291;19;953;-67
2024/03/11 03:55:44;;;;;;;;;;;;;;;8.57;80.02;96488.84;7394339;19;1037;-75
2024/03/11 03:58:13;;;;;;;;;;;;;;;8.58;79.74;96487.13;7394021;19;2002;-68
2024/03/11 04:00:41;;;;;;;;;;;;;;;8.59;80.00;96478.38;7393989;19;1928;-74
2024/03/11 04:03:10;;;;;;;;;;;;;;;8.58;81.11;96480.13;7394131;19;1051;-68
2024/03/11 04:05:38;;;;;;;;;;;;;;;8.59;81.20;96479.25;7393775;19;1924;-68
2024/03/11 04:08:10;;;;;;;;;;;;;;;8.63;80.85;96479.13;7391767;19;1921;-70
2024/03/11 04:10:39;;;;;;;;;;;;;;;8.69;80.31;96484.16;7391935;19;1465;-73
2024/03/11 04:13:07;;;;;;;;;;;;;;;8.70;80.08;96488.50;7393304;19;982;-70
2024/03/11 04:15:40;;;;;;;;;;;;;;;8.72;80.47;96487.53;7393070;19;1108;-66
2024/03/11 04:18:10;;;;;;;;;;;;;;;8.75;80.17;96483.97;7393603;19;1114;-69
2024/03/11 04:20:39;;;;;;;;;;;;;;;8.79;80.49;96489.94;7393449;19;1020;-74
2024/03/11 04:23:12;;;;;;;;;;;;;;;8.78;80.92;96499.53;7399362;19;1039;-69
2024/03/11 04:25:41;;;;;;;;;;;;;;;8.84;81.18;96501.06;7400291;19;1140;-68
2024/03/11 04:28:10;;;;;;;;;;;;;;;8.89;81.66;96498.31;7398194;19;1842;-70
2024/03/11 04:30:40;;;;;;;;;;;;;;;8.96;81.01;96507.66;7400629;19;1040;-72
2024/03/11 04:33:11;;;;;;;;;;;;;;;8.98;80.83;96514.53;7400072;19;1136;-70
2024/03/11 04:35:40;;;;;;;;;;;;;;;8.95;81.18;96511.19;7400435;19;980;-63
2024/03/11 04:38:12;;;;;;;;;;;;;;;9.01;81.14;96507.50;7399917;19;1001;-70
2024/03/11 04:40:41;;;;;;;;;;;;;;;9.05;80.69;96515.19;7400267;19;1008;-74
2024/03/11 04:43:09;;;;;;;;;;;;;;;9.04;80.66;96507.41;7399822;19;1073;-73
2024/03/11 04:45:38;;;;;;;;;;;;;;;8.95;81.30;96508.56;7400151;19;942;-75
2024/03/11 04:48:08;;;;;;;;;;;;;;;8.93;81.59;96508.63;7398231;19;1898;-65
2024/03/11 04:50:38;;;;;;;;;;;;;;;8.99;81.61;96518.00;7399921;19;972;-69
2024/03/11 04:53:07;;;;;;;;;;;;;;;9.08;81.78;96519.47;7399476;19;1111;-72
2024/03/11 04:55:39;;;;;;;;;;;;;;;9.03;81.57;96509.16;7399483;19;1056;-72
2024/03/11 04:58:07;;;;;;;;;;;;;;;9.01;82.02;96502.28;7399386;19;1091;-66
2024/03/11 05:00:36;;;;;;;;;;;;;;;8.88;82.35;96487.03;7399263;19;1209;-74
2024/03/11 05:03:06;;;;;;;;;;;;;;;8.73;83.39;96496.19;7399557;19;1806;-72
2024/03/11 05:05:35;;;;;;;;;;;;;;;8.73;83.44;96496.19;7399031;19;1103;-70
2024/03/11 05:08:04;;;;;;;;;;;;;;;8.75;84.06;96497.00;7397376;19;1846;-73
2024/03/11 05:10:33;;;;;;;;;;;;;;;8.76;83.83;96506.53;7397498;19;1160;-73
2024/03/11 05:13:05;;;;;;;;;;;;;;;8.84;83.48;96509.75;7399312;19;1015;-71
2024/03/11 05:15:35;;;;;;;;;;;;;;;8.94;83.03;96518.13;7398711;19;1116;-66
2024/03/11 05:18:04;;;;;;;;;;;;;;;9.01;82.78;96518.81;7399159;19;1008;-71
2024/03/11 05:20:33;;;;;;;;;;;;;;;9.08;82.51;96517.72;7398593;19;1021;-68
2024/03/11 05:23:01;;;;;;;;;;;;;;;9.16;82.07;96517.47;7399054;19;1024;-70
2024/03/11 05:25:30;;;;;;;;;;;;;;;9.16;82.21;96524.44;7398378;19;1041;-63
2024/03/11 05:27:58;;;;;;;;;;;;;;;9.22;82.15;96535.50;7396857;19;1853;-71
2024/03/11 05:30:30;;;;;;;;;;;;;;;9.27;81.77;96532.75;7399045;19;1622;-65
2024/03/11 05:32:58;;;;;;;;;;;;;;;9.33;81.38;96536.94;7397145;19;1088;-71
2024/03/11 05:35:27;;;;;;;;;;;;;;;9.34;81.68;96530.81;7397601;19;1053;-70
2024/03/11 05:37:55;;;;;;;;;;;;;;;9.22;82.07;96530.28;7398384;19;1937;-66
2024/03/11 05:40:24;;;;;;;;;;;;;;;9.28;82.16;96533.63;7397972;19;910;-63
2024/03/11 05:42:53;;;;;;;;;;;;;;;9.35;82.12;96535.13;7397927;19;1073;-70
2024/03/11 05:45:21;;;;;;;;;;;;;;;9.35;81.90;96522.06;7397880;19;1083;-72
2024/03/11 05:47:52;;;;;;;;;;;;;;;9.28;81.84;96518.81;7396647;19;1848;-67
2024/03/11 05:50:21;;;;;;;;;;;;;;;9.21;82.65;96510.31;7397618;19;1041;-74
2024/03/11 05:52:49;;;;;;;;;;;;;;;9.15;83.08;96507.91;7397673;19;2019;-72
2024/03/11 05:55:21;;;;;;;;;;;;;;;9.10;83.77;96502.84;7397657;19;1852;-71
2024/03/11 05:57:50;;;;;;;;;;;;;;;9.06;84.11;96497.78;7397257;19;1103;-72
2024/03/11 06:00:19;;;;;;;;;;;;;;;8.98;84.67;96490.22;7397501;19;1789;-71
2024/03/11 06:02:47;;;;;;;;;;;;;;;8.92;84.84;96495.63;7397946;19;1751;-70
2024/03/11 06:05:19;;;;;;;;;;;;;;;8.92;85.49;96487.78;7397857;19;1786;-66
2024/03/11 06:07:48;;;;;;;;;;;;;;;8.98;85.67;96485.81;7396098;19;1846;-71
2024/03/11 06:10:16;;;;;;;;;;;;;;;8.95;85.43;96488.56;7395912;19;1201;-69
2024/03/11 06:12:46;;;;;;;;;;;;;;;9.01;84.79;96499.69;7396799;19;1080;-66
2024/03/11 06:15:14;;;;;;;;;;;;;;;9.13;85.25;96501.03;7397186;19;1058;-69
2024/03/11 06:17:43;;;;;;;;;;;;;;;9.29;84.28;96496.16;7397164;19;1052;-71
2024/03/11 06:20:13;;;;;;;;;;;;;;;9.42;82.59;96501.84;7396555;19;1132;-73
2024/03/11 06:22:45;;;;;;;;;;;;;;;9.40;82.22;96493.19;7396527;19;1084;-72
2024/03/11 06:25:15;;;;;;;;;;;;;;;9.51;82.01;96498.06;7396320;19;1045;-64
2024/03/11 06:27:43;;;;;;;;;;;;;;;9.64;81.81;96503.69;7395711;19;1855;-66
2024/03/11 06:30:12;;;;;;;;;;;;;;;9.83;81.59;96514.34;7396461;19;1817;-72
2024/03/11 06:32:42;;;;;;;;;;;;;;;9.93;80.72;96515.72;7396640;19;1838;-70
2024/03/11 06:35:13;;;;;;;;;;;;;;;10.02;80.05;96517.16;7396028;19;1026;-66
2024/03/11 06:37:45;;;;;;;;;;;;;;;10.06;79.43;96517.91;7396066;19;1029;-72
2024/03/11 06:40:17;;;;;;;;;;;;;;;10.00;79.88;96526.81;7395919;19;992;-73
2024/03/11 06:42:48;;;;;;;;;;;;;;;9.99;79.67;96519.88;7395801;19;1044;-74
2024/03/11 06:45:17;;;;;;;;;;;;;;;10.06;79.92;96515.28;7395671;19;1026;-72
2024/03/11 06:47:45;;;;;;;;;;;;;;;10.13;79.70;96534.19;7395499;19;1896;-73
2024/03/11 06:50:15;;;;;;;;;;;;;;;10.21;78.93;96543.47;7396079;19;1017;-72
2024/03/11 06:52:46;;;;;;;;;;;;;;;10.24;78.55;96532.91;7396023;19;1060;-73
2024/03/11 06:55:16;;;;;;;;;;;;;;;10.35;77.52;96524.66;7395414;19;1111;-72
2024/03/11 06:57:45;;;;;;;;;;;;;;;10.41;75.85;96527.97;7395766;19;1044;-68
2024/03/11 07:00:19;;;;;;;;;;;;;;;10.45;75.66;96533.03;7395762;19;964;-69
2024/03/11 07:02:49;;;;;;;;;;;;;;;10.38;75.35;96539.38;7395259;19;1003;-71
2024/03/11 07:05:17;;;;;;;;;;;;;;;10.30;75.84;96539.66;7395060;19;1084;-68
2024/03/11 07:07:49;;;;;;;;;;;;;;;10.35;75.89;96550.81;7395065;19;1842;-71
2024/03/11 07:10:17;;;;;;;;;;;;;;;10.43;76.28;96547.91;7394408;19;1097;-66
2024/03/11 07:12:45;;;;;;;;;;;;;;;10.46;76.31;96545.22;7395022;19;1042;-67
2024/03/11 07:15:14;;;;;;;;;;;;;;;10.47;75.78;96546.94;7394930;19;1092;-67
2024/03/11 07:17:43;;;;;;;;;;;;;;;10.42;75.31;96546.19;7395227;19;1916;-69
2024/03/11 07:20:13;;;;;;;;;;;;;;;10.43;75.38;96547.06;7395151;19;1806;-71
2024/03/11 07:22:42;;;;;;;;;;;;;;;10.37;75.06;96553.38;7394769;19;1045;-73
2024/03/11 07:25:15;;;;;;;;;;;;;;;10.41;75.65;96560.19;7394971;19;1482;-75
2024/03/11 07:27:47;;;;;;;;;;;;;;;10.42;76.21;96569.72;7394620;19;1841;-68
2024/03/11 07:30:22;;;;;;;;;;;;;;;10.44;75.80;96546.13;7394494;19;1009;-70
2024/03/11 07:33:04;;;;;;;;;;;;;;;10.47;75.59;96553.91;7394412;19;1100;-66
2024/03/11 07:35:32;;;;;;;;;;;;;;;10.46;75.32;96567.91;7394408;19;1091;-68
2024/03/11 07:38:01;;;;;;;;;;;;;;;10.51;75.02;96568.59;7394273;19;1112;-73
2024/03/11 07:40:32;;;;;;;;;;;;;;;10.59;75.18;96558.69;7394154;19;1076;-70
2024/03/11 07:43:00;;;;;;;;;;;;;;;10.65;74.33;96562.81;7394617;19;1028;-71
2024/03/11 07:45:29;;;;;;;;;;;;;;;10.70;74.39;96557.44;7394512;19;1044;-69
2024/03/11 07:47:57;;;;;;;;;;;;;;;10.65;74.13;96554.16;7393973;19;1830;-70
2024/03/11 07:50:27;;;;;;;;;;;;;;;10.65;74.36;96562.00;7394248;19;1891;-73
2024/03/11 07:52:56;;;;;;;;;;;;;;;10.61;74.32;96577.81;7394379;19;1024;-68
2024/03/11 07:55:28;;;;;;;;;;;;;;;10.69;74.52;96577.50;7394130;19;1808;-71
2024/03/11 07:58:00;;;;;;;;;;;;;;;10.74;74.70;96572.94;7399670;19;1044;-69
2024/03/11 08:00:35;;;;;;;;;;;;;;;10.85;74.51;96579.53;7401210;19;1068;-72
2024/03/11 08:03:04;;;;;;;;;;;;;;;10.89;73.29;96578.50;7401566;19;968;-72
2024/03/11 08:05:34;;;;;;;;;;;;;;;10.96;73.10;96571.28;7401558;19;1012;-71
2024/03/11 08:08:03;;;;;;;;;;;;;;;10.99;73.01;96579.00;7400304;19;1844;-68
2024/03/11 08:10:31;;;;;;;;;;;;;;;11.09;72.72;96579.50;7399316;19;1214;-69
2024/03/11 08:13:04;;;;;;;;;;;;;;;11.17;72.72;96580.03;7401322;19;1071;-67
2024/03/11 08:15:33;;;;;;;;;;;;;;;11.20;72.23;96581.69;7400762;19;1056;-71
2024/03/11 08:18:01;;;;;;;;;;;;;;;11.19;71.72;96572.13;7400616;19;1061;-72
2024/03/11 08:20:31;;;;;;;;;;;;;;;11.21;71.79;96565.06;7401009;19;1020;-70
2024/03/11 08:22:59;;;;;;;;;;;;;;;11.22;71.78;96569.38;7400442;19;1136;-66
2024/03/11 08:25:31;;;;;;;;;;;;;;;11.24;71.42;96562.31;7400733;19;1974;-70
2024/03/11 08:28:03;;;;;;;;;;;;;;;11.21;71.60;96552.81;7399924;19;1810;-73
2024/03/11 08:30:31;;;;;;;;;;;;;;;11.10;72.28;96553.25;7400736;19;1013;-68
2024/03/11 08:32:59;;;;;;;;;;;;;;;11.02;73.02;96554.47;7400552;19;1828;-68
2024/03/11 08:35:29;;;;;;;;;;;;;;;10.99;73.47;96545.81;7400406;19;1948;-68
2024/03/11 08:37:57;;;;;;;;;;;;;;;10.91;73.21;96540.06;7400569;19;965;-71
2024/03/11 08:40:26;;;;;;;;;;;;;;;10.96;73.32;96532.84;7400433;19;956;-67
2024/03/11 08:42:56;;;;;;;;;;;;;;;10.96;73.77;96526.78;7400340;19;953;-68
2024/03/11 08:45:32;;;;;;;;;;;;;;;10.79;74.00;96520.44;7399692;19;1064;-69
2024/03/11 08:48:00;;;;;;;;;;;;;;;10.78;73.73;96518.75;7399272;19;1868;-69
2024/03/11 08:50:29;;;;;;;;;;;;;;;10.79;73.96;96511.72;7400306;19;1656;-69
2024/03/11 08:52:57;;;;;;;;;;;;;;;10.77;74.10;96503.94;7399864;19;1955;-72
2024/03/11 08:55:25;;;;;;;;;;;;;;;10.60;74.79;96499.38;7399782;19;1870;-70
2024/03/11 08:57:58;;;;;;;;;;;;;;;10.55;75.10;96502.19;7397182;19;2256;-73
2024/03/11 09:00:30;;;;;;;;;;;;;;;10.54;75.44;96512.69;7399243;19;1030;-68
2024/03/11 09:02:59;;;;;;;;;;;;;;;10.67;75.36;96513.94;7399191;19;1095;-66
2024/03/11 09:05:28;;;;;;;;;;;;;;;10.65;74.91;96526.19;7399127;19;1080;-70
2024/03/11 09:07:56;;;;;;;;;;;;;;;10.81;74.76;96541.31;7397201;19;1838;-71
2024/03/11 09:10:25;;;;;;;;;;;;;;;10.99;74.35;96545.81;7397810;19;1781;-67
2024/03/11 09:12:54;;;;;;;;;;;;;;;11.16;73.33;96546.03;7398941;19;1083;-68
2024/03/11 09:15:23;;;;;;;;;;;;;;;11.39;72.69;96545.13;7399196;19;1043;-73
2024/03/11 09:17:54;;;;;;;;;;;;;;;11.62;72.14;96552.03;7398689;19;1108;-71
2024/03/11 09:20:27;;;;;;;;;;;;;;;11.85;71.36;96542.34;7398636;19;1064;-70
2024/03/11 09:22:56;;;;;;;;;;;;;;;11.96;69.80;96546.25;7398526;19;1021;-63
2024/03/11 09:25:25;;;;;;;;;;;;;;;12.11;69.02;96548.25;7398410;19;1120;-71
2024/03/11 09:27:55;;;;;;;;;;;;;;;12.08;68.10;96552.78;7398769;19;1816;-72
2024/03/11 09:30:27;;;;;;;;;;;;;;;12.03;67.41;96550.31;7395932;19;1861;-68
2024/03/11 09:32:58;;;;;;;;;;;;;;;12.14;66.49;96544.63;7398785;19;1027;-68
2024/03/11 09:35:28;;;;;;;;;;;;;;;12.13;66.53;96548.16;7398111;19;1044;-69
2024/03/11 09:37:57;;;;;;;;;;;;;;;12.25;66.14;96554.63;7398105;19;973;-67
2024/03/11 09:40:26;;;;;;;;;;;;;;;12.45;65.85;96548.50;7397947;19;954;-68
2024/03/11 09:42:56;;;;;;;;;;;;;;;12.61;65.35;96547.78;7398415;19;1024;-69
2024/03/11 09:45:27;;;;;;;;;;;;;;;12.80;66.06;96554.81;7397792;19;978;-70
2024/03/11 09:48:00;;;;;;;;;;;;;;;12.90;63.49;96556.09;7397808;19;1099;-70
2024/03/11 09:50:33;;;;;;;;;;;;;;;13.08;63.24;96558.75;7395988;19;1850;-68
2024/03/11 09:53:03;;;;;;;;;;;;;;;13.26;63.90;96552.63;7397631;19;1161;-71
2024/03/11 09:55:32;;;;;;;;;;;;;;;13.60;63.64;96557.16;7397978;19;1012;-72
2024/03/11 09:58:02;;;;;;;;;;;;;;;13.93;62.46;96551.13;7395758;19;937;-65
2024/03/11 10:00:32;;;;;;;;;;;;;;;14.17;61.72;96548.13;7397856;19;1017;-73
2024/03/11 10:03:03;;;;;;;;;;;;;;;14.46;59.38;96545.75;7397267;19;1077;-68
2024/03/11 10:05:34;;;;;;;;;;;;;;;14.65;57.37;96558.78;7397633;19;1040;-70
2024/03/11 10:08:04;;;;;;;;;;;;;;;14.52;55.87;96550.69;7397103;19;1025;-72
2024/03/11 10:10:32;;;;;;;;;;;;;;;14.34;56.70;96546.41;7394703;19;1858;-70
2024/03/11 10:13:04;;;;;;;;;;;;;;;14.28;57.21;96542.31;7396993;19;1005;-70
2024/03/11 10:15:34;;;;;;;;;;;;;;;14.18;57.30;96536.69;7396834;19;1033;-69
2024/03/11 10:18:25;;;;;;;;;;;;;;;14.15;56.87;96536.88;7397172;19;1833;-67
2024/03/11 10:20:57;;;;;;;;;;;;;;;14.23;57.48;96539.94;7396468;19;977;-73
2024/03/11 10:23:26;;;;;;;;;;;;;;;14.32;58.17;96530.69;7396555;19;1033;-64
2024/03/11 10:26:12;;;;;;;;;;;;;;;14.35;57.18;96538.44;7397086;19;1019;-64
2024/03/11 10:28:42;;;;;;;;;;;;;;;14.35;56.97;96540.19;7396562;19;1841;-65
2024/03/11 10:31:21;;;;;;;;;;;;;;;14.31;55.99;96536.91;7396359;19;1021;-67
2024/03/11 10:33:53;;;;;;;;;;;;;;;14.34;56.94;96538.50;7396661;19;1050;-69
2024/03/11 10:36:24;;;;;;;;;;;;;;;14.15;55.97;96528.97;7396748;19;1024;-63
2024/03/11 10:38:53;;;;;;;;;;;;;;;14.06;57.12;96537.34;7396678;19;1055;-71
2024/03/11 10:41:23;;;;;;;;;;;;;;;14.12;56.57;96537.84;7396583;19;1032;-71
2024/03/11 10:43:52;;;;;;;;;;;;;;;14.07;56.70;96525.88;7396014;19;1088;-67
2024/03/11 10:46:22;;;;;;;;;;;;;;;14.17;56.73;96521.00;7396181;19;1140;-70
2024/03/11 10:48:51;;;;;;;;;;;;;;;14.25;56.42;96517.03;7395803;19;1857;-69
2024/03/11 10:51:21;;;;;;;;;;;;;;;14.26;56.15;96509.97;7393983;19;1203;-64
2024/03/11 10:53:53;;;;;;;;;;;;;;;14.26;55.66;96512.59;7395553;19;1100;-67
2024/03/11 10:56:24;;;;;;;;;;;;;;;14.31;55.59;96515.00;7395953;19;1016;-65
2024/03/11 10:58:54;;;;;;;;;;;;;;;14.34;57.47;96510.44;7395889;19;961;-70
2024/03/11 11:01:30;;;;;;;;;;;;;;;14.33;56.68;96507.88;7395319;19;1939;-69
2024/03/11 11:04:02;;;;;;;;;;;;;;;14.36;55.51;96512.97;7395417;19;1108;-68
2024/03/11 11:06:32;;;;;;;;;;;;;;;14.42;55.06;96503.91;7395205;19;1119;-70
2024/03/11 11:09:10;;;;;;;;;;;;;;;14.60;55.93;96497.63;7394661;19;1842;-69
2024/03/11 11:11:41;;;;;;;;;;;;;;;14.80;54.62;96500.97;7393726;19;1061;-67
2024/03/11 11:14:11;;;;;;;;;;;;;;;14.83;54.74;96495.53;7394978;19;1123;-67
2024/03/11 11:16:43;;;;;;;;;;;;;;;14.91;54.06;96488.03;7395297;19;976;-67
2024/03/11 11:19:17;;;;;;;;;;;;;;;14.75;54.33;96487.19;7394826;19;1028;-66
2024/03/11 11:21:46;;;;;;;;;;;;;;;14.86;53.67;96484.81;7394668;19;1132;-71
2024/03/11 11:24:29;;;;;;;;;;;;;;;15.02;53.92;96486.59;7395247;19;1143;-67
2024/03/11 11:26:58;;;;;;;;;;;;;;;15.21;53.92;96478.50;7395188;19;1023;-73
2024/03/11 11:29:29;;;;;;;;;;;;;;;15.47;52.20;96478.75;7394272;19;1857;-70
2024/03/11 11:32:06;;;;;;;;;;;;;;;15.66;52.84;96480.28;7393274;19;1043;-67
2024/03/11 11:34:55;;;;;;;;;;;;;;;15.76;52.57;96476.16;7394339;19;1020;-71
2024/03/11 11:37:39;;;;;;;;;;;;;;;15.94;52.10;96469.84;7394264;19;1092;-70
2024/03/11 11:40:23;;;;;;;;;;;;;;;16.03;51.34;96467.56;7394228;19;1104;-70
2024/03/11 11:42:51;;;;;;;;;;;;;;;16.15;52.61;96465.94;7394422;19;1845;-70
2024/03/11 11:45:47;;;;;;;;;;;;;;;16.41;53.11;96463.44;7394106;19;1024;-71
2024/03/11 11:48:18;;;;;;;;;;;;;;;16.46;50.24;96457.88;7392458;19;1743;-68
2024/03/11 11:50:51;;;;;;;;;;;;;;;16.22;50.47;96449.75;7392829;19;1853;-67
2024/03/11 11:53:27;;;;;;;;;;;;;;;15.95;51.93;96451.31;7394265;19;1039;-65
2024/03/11 11:55:56;;;;;;;;;;;;;;;15.97;52.20;96444.19;7393734;19;1045;-68
2024/03/11 11:58:25;;;;;;;;;;;;;;;15.75;52.34;96450.72;7394245;19;968;-72
2024/03/11 12:01:01;;;;;;;;;;;;;;;15.82;51.82;96451.22;7393742;19;1084;-65
2024/03/11 12:03:31;;;;;;;;;;;;;;;15.82;52.60;96451.22;7394076;19;1052;-68
2024/03/11 12:06:20;;;;;;;;;;;;;;;15.76;52.86;96459.50;7394058;19;965;-65
2024/03/11 12:08:53;;;;;;;;;;;;;;;15.63;53.00;96448.84;7393451;19;1072;-72
2024/03/11 12:11:24;;;;;;;;;;;;;;;15.52;53.63;96446.84;7391753;19;1041;-65
2024/03/11 12:13:58;;;;;;;;;;;;;;;15.52;54.22;96437.16;7393339;19;1118;-71
2024/03/11 12:16:27;;;;;;;;;;;;;;;15.57;54.10;96446.56;7393350;19;992;-66
2024/03/11 12:19:05;;;;;;;;;;;;;;;15.33;54.99;96436.53;7393268;19;1110;-70
2024/03/11 12:21:34;;;;;;;;;;;;;;;15.29;55.02;96435.84;7393240;19;1044;-67
2024/03/11 12:24:09;;;;;;;;;;;;;;;15.26;55.42;96430.81;7393200;19;1071;-70
2024/03/11 12:26:38;;;;;;;;;;;;;;;15.19;55.88;96425.03;7393522;19;1211;-69
2024/03/11 12:29:07;;;;;;;;;;;;;;;15.26;55.74;96415.81;7393236;19;1841;-66
2024/03/11 12:31:37;;;;;;;;;;;;;;;15.24;56.62;96423.00;7393381;19;1008;-70
2024/03/11 12:34:09;;;;;;;;;;;;;;;15.37;56.40;96416.97;7393319;19;1052;-66
2024/03/11 12:36:39;;;;;;;;;;;;;;;15.43;55.43;96411.34;7392865;19;1025;-70
2024/03/11 12:39:16;;;;;;;;;;;;;;;15.33;55.63;96421.59;7392846;19;1044;-71
2024/03/11 12:41:47;;;;;;;;;;;;;;;15.23;56.36;96407.25;7392680;19;1123;-67
2024/03/11 12:44:18;;;;;;;;;;;;;;;15.09;56.27;96403.66;7399258;19;1044;-70
2024/03/11 12:46:50;;;;;;;;;;;;;;;15.05;56.71;96398.66;7399875;19;1087;-69
2024/03/11 12:49:19;;;;;;;;;;;;;;;15.12;56.53;96392.94;7399421;19;1849;-71
2024/03/11 12:51:51;;;;;;;;;;;;;;;15.05;57.19;96404.75;7399692;19;1001;-69
2024/03/11 12:54:23;;;;;;;;;;;;;;;14.96;57.51;96395.59;7399590;19;1100;-68
2024/03/11 12:57:09;;;;;;;;;;;;;;;14.83;57.81;96394.63;7399511;19;1064;-70
2024/03/11 12:59:37;;;;;;;;;;;;;;;14.73;58.85;96383.75;7399918;19;968;-66
2024/03/11 13:02:18;;;;;;;;;;;;;;;14.84;58.08;96389.25;7399542;19;1836;-69
2024/03/11 13:04:49;;;;;;;;;;;;;;;14.90;57.88;96383.66;7399104;19;1013;-70
2024/03/11 13:07:18;;;;;;;;;;;;;;;14.87;58.52;96380.34;7399140;19;1028;-67
2024/03/11 13:09:50;;;;;;;;;;;;;;;14.77;58.45;96369.47;7398472;19;1874;-67
2024/03/11 13:12:19;;;;;;;;;;;;;;;14.76;58.83;96373.03;7398927;19;973;-70
2024/03/11 13:14:48;;;;;;;;;;;;;;;14.64;59.89;96364.91;7398807;19;1286;-67
2024/03/11 13:17:18;;;;;;;;;;;;;;;14.86;59.25;96370.75;7399250;19;1020;-67
2024/03/11 13:19:47;;;;;;;;;;;;;;;14.98;58.49;96362.13;7398664;19;1040;-70